Time;durP1;ratioP1;P1;durP2;ratioP2;P2;SDS_P1;SDS_P2;PMS_P1;PMS_P2;Temp;Humidity;BMP_temperature;BMP_pressure;BME280_temperature;BME280_humidity;BME280_pressure;Samples;Min_cycle;Max_cycle;Signal;HPM_P1;HPM_P2
2021/06/09 00:01:40;;;;;;;54.17;46.33;;;;;;;16.33;79.21;100780.19;5014327;28;20046;-75
2021/06/09 00:04:07;;;;;;;49.13;44.13;;;;;;;16.40;78.78;100786.84;5015380;28;20054;-75
2021/06/09 00:06:35;;;;;;;52.67;46.90;;;;;;;16.41;78.45;100783.16;5015350;28;20046;-75
2021/06/09 00:09:02;;;;;;;52.25;46.63;;;;;;;16.35;78.69;100783.63;5014192;28;20467;-74
2021/06/09 00:11:29;;;;;;;51.92;46.20;;;;;;;16.12;79.65;100778.13;5015357;28;20085;-75
2021/06/09 00:13:56;;;;;;;49.40;44.05;;;;;;;16.23;79.58;100784.56;5014370;28;20124;-75
2021/06/09 00:16:23;;;;;;;48.80;43.58;;;;;;;16.22;79.76;100793.59;5015270;28;20081;-75
2021/06/09 00:18:50;;;;;;;50.83;45.33;;;;;;;16.30;79.57;100785.81;5014983;28;20061;-75
2021/06/09 00:21:19;;;;;;;52.65;45.08;;;;;;;16.33;79.15;100782.03;5015268;28;20053;-75
2021/06/09 00:23:46;;;;;;;50.75;44.90;;;;;;;16.21;79.80;100795.44;5015393;28;20099;-76
2021/06/09 00:26:14;;;;;;;52.17;45.30;;;;;;;16.06;80.13;100783.97;5016335;28;20053;-75
2021/06/09 00:28:41;;;;;;;50.15;44.60;;;;;;;16.14;80.18;100788.81;5019317;28;20382;-76
2021/06/09 00:31:08;;;;;;;50.47;45.03;;;;;;;16.09;80.55;100794.53;5017916;28;20058;-75
2021/06/09 00:33:35;;;;;;;54.15;47.25;;;;;;;16.08;80.57;100792.78;5018576;28;20325;-75
2021/06/09 00:36:03;;;;;;;53.97;47.03;;;;;;;16.02;80.56;100788.72;5018478;28;20062;-75
2021/06/09 00:38:30;;;;;;;55.60;47.30;;;;;;;15.98;80.56;100781.88;5018470;28;20057;-75
2021/06/09 00:40:58;;;;;;;53.20;47.17;;;;;;;16.01;80.54;100787.03;5018708;28;20054;-75
2021/06/09 00:43:28;;;;;;;51.13;45.55;;;;;;;15.96;80.97;100785.66;5018272;28;20100;-76
2021/06/09 00:46:00;;;;;;;56.92;48.08;;;;;;;15.87;80.64;100771.84;5018596;28;20050;-75
2021/06/09 00:48:30;;;;;;;52.25;46.63;;;;;;;15.98;80.44;100783.69;5018417;28;20049;-75
2021/06/09 00:50:59;;;;;;;52.55;46.40;;;;;;;15.70;80.69;100762.31;5018627;28;20108;-75
2021/06/09 00:53:37;;;;;;;49.58;44.15;;;;;;;15.79;80.85;100776.94;5018155;28;20140;-75
2021/06/09 00:56:12;;;;;;;50.22;42.53;;;;;;;15.75;80.94;100778.16;5018348;28;20050;-76
2021/06/09 00:58:41;;;;;;;48.38;43.05;;;;;;;15.71;81.10;100766.75;5017348;28;20050;-75
2021/06/09 01:01:09;;;;;;;50.55;41.80;;;;;;;15.76;80.95;100777.19;5018378;28;20096;-76
2021/06/09 01:03:36;;;;;;;52.97;42.70;;;;;;;15.70;81.19;100774.94;5017889;28;20387;-75
2021/06/09 01:06:04;;;;;;;45.70;40.80;;;;;;;15.68;81.25;100780.41;5018090;28;20439;-75
2021/06/09 01:08:34;;;;;;;46.83;41.72;;;;;;;15.64;81.46;100775.38;5017901;28;20042;-75
2021/06/09 01:11:01;;;;;;;46.20;40.50;;;;;;;15.66;81.75;100776.13;5017971;28;20104;-75
2021/06/09 01:13:29;;;;;;;45.92;39.65;;;;;;;15.59;81.76;100781.94;5017944;28;20108;-76
2021/06/09 01:15:57;;;;;;;46.05;40.65;;;;;;;15.49;82.12;100775.53;5018166;28;20100;-76
2021/06/09 01:18:25;;;;;;;48.28;40.67;;;;;;;15.46;82.23;100781.97;5017607;28;20428;-76
2021/06/09 01:20:54;;;;;;;44.63;39.83;;;;;;;15.42;82.75;100774.25;5037094;28;20127;-76
2021/06/09 01:23:21;;;;;;;47.83;41.08;;;;;;;15.46;82.40;100779.28;5036259;28;20053;-76
2021/06/09 01:25:49;;;;;;;46.67;41.72;;;;;;;15.45;82.42;100784.78;5036500;28;20057;-75
2021/06/09 01:28:16;;;;;;;44.58;39.88;;;;;;;15.39;82.29;100766.38;5037261;28;20045;-75
2021/06/09 01:30:43;;;;;;;46.50;41.20;;;;;;;15.41;82.70;100785.97;5037795;28;20057;-76
2021/06/09 01:33:11;;;;;;;47.03;41.53;;;;;;;15.48;82.50;100781.88;5037423;28;20065;-75
2021/06/09 01:35:38;;;;;;;44.05;39.25;;;;;;;15.37;82.84;100787.16;5037492;28;20119;-75
2021/06/09 01:38:06;;;;;;;43.75;39.08;;;;;;;15.27;83.31;100784.25;5036494;28;20054;-75
2021/06/09 01:40:33;;;;;;;46.33;40.00;;;;;;;15.21;83.52;100789.09;5037055;28;20084;-75
2021/06/09 01:43:03;;;;;;;47.05;41.28;;;;;;;15.18;83.74;100783.06;5036937;28;20083;-75
2021/06/09 01:45:33;;;;;;;48.63;42.78;;;;;;;15.16;83.07;100779.66;5036961;28;20443;-76
2021/06/09 01:48:01;;;;;;;47.00;42.05;;;;;;;15.15;83.43;100780.63;5037009;28;20049;-76
2021/06/09 01:50:28;;;;;;;49.17;40.70;;;;;;;15.23;83.31;100780.06;5036914;28;20441;-75
2021/06/09 01:52:55;;;;;;;47.72;40.78;;;;;;;15.14;83.45;100776.22;5036680;28;20045;-75
2021/06/09 01:55:23;;;;;;;47.88;42.67;;;;;;;15.19;83.14;100776.72;5037265;28;20049;-75
2021/06/09 01:57:51;;;;;;;48.22;43.08;;;;;;;15.19;83.25;100777.59;5036582;28;20431;-75
2021/06/09 02:00:27;;;;;;;49.33;43.28;;;;;;;15.19;82.99;100774.03;5036765;28;20096;-76
2021/06/09 02:02:58;;;;;;;47.85;42.70;;;;;;;15.23;82.91;100786.31;5035730;28;20053;-75
2021/06/09 02:05:30;;;;;;;48.10;41.70;;;;;;;15.21;82.86;100782.88;5036950;28;20050;-75
2021/06/09 02:08:00;;;;;;;47.40;41.58;;;;;;;15.16;83.11;100785.03;5036625;28;20423;-76
2021/06/09 02:10:28;;;;;;;49.03;43.47;;;;;;;15.05;83.63;100789.31;5036458;28;20497;-75
2021/06/09 02:13:01;;;;;;;47.25;42.20;;;;;;;15.01;83.32;100773.50;5035644;28;20126;-76
2021/06/09 02:15:27;;;;;;;45.05;40.15;;;;;;;15.07;83.33;100779.34;5036540;28;20049;-76
2021/06/09 02:17:59;;;;;;;47.80;41.25;;;;;;;15.07;83.23;100778.47;5036273;28;20046;-75
2021/06/09 02:20:28;;;;;;;48.08;40.47;;;;;;;15.07;83.32;100786.53;5020962;28;20127;-75
2021/06/09 02:22:55;;;;;;;50.35;42.85;;;;;;;15.04;83.60;100787.59;5016374;28;20053;-76
2021/06/09 02:25:23;;;;;;;48.20;42.40;;;;;;;14.94;84.12;100783.84;5015447;28;20167;-76
2021/06/09 02:27:49;;;;;;;48.88;42.10;;;;;;;14.90;84.28;100780.50;5016630;28;20045;-76
2021/06/09 02:30:17;;;;;;;48.63;43.47;;;;;;;14.93;84.32;100787.50;5015704;28;20073;-76
2021/06/09 02:32:46;;;;;;;46.78;41.85;;;;;;;14.98;83.90;100787.19;5016437;28;20065;-75
2021/06/09 02:35:18;;;;;;;54.30;46.60;;;;;;;14.92;84.72;100788.44;5015967;28;20104;-76
2021/06/09 02:37:52;;;;;;;49.30;44.10;;;;;;;14.92;84.89;100788.44;5016203;28;20431;-76
2021/06/09 02:40:23;;;;;;;53.53;44.70;;;;;;;15.03;83.87;100787.72;5016425;28;20378;-76
2021/06/09 02:42:49;;;;;;;50.08;43.15;;;;;;;14.94;84.31;100787.38;5016495;28;20050;-75
2021/06/09 02:45:19;;;;;;;49.65;43.38;;;;;;;14.96;84.13;100787.28;5016217;28;20049;-76
2021/06/09 02:47:50;;;;;;;52.50;42.08;;;;;;;14.88;84.35;100786.97;5016071;28;20050;-76
2021/06/09 02:50:19;;;;;;;50.05;43.55;;;;;;;14.86;84.11;100783.53;5016080;28;20050;-76
2021/06/09 02:52:55;;;;;;;49.95;43.55;;;;;;;14.88;84.32;100784.28;5016546;28;20099;-75
2021/06/09 02:55:28;;;;;;;56.00;46.13;;;;;;;14.82;84.33;100787.38;5016009;28;20050;-76
2021/06/09 02:58:00;;;;;;;49.63;44.17;;;;;;;14.86;84.40;100784.38;5016008;28;20108;-76
2021/06/09 03:00:39;;;;;;;55.97;45.92;;;;;;;14.88;84.05;100781.59;5016101;28;20062;-76
2021/06/09 03:03:25;;;;;;;56.63;44.90;;;;;;;14.91;84.26;100786.72;5016080;28;20050;-76
2021/06/09 03:06:09;;;;;;;50.40;43.35;;;;;;;14.99;83.74;100787.06;5016181;28;20096;-76
2021/06/09 03:09:07;;;;;;;55.38;45.95;;;;;;;14.99;83.76;100778.97;5015791;28;20053;-76
2021/06/09 03:11:52;;;;;;;52.65;45.63;;;;;;;15.02;83.65;100778.78;5015694;28;20058;-75
2021/06/09 03:15:19;;;;;;;56.35;45.08;;;;;;;15.03;83.21;100772.44;5015692;28;20053;-76
2021/06/09 03:17:46;;;;;;;50.78;44.05;;;;;;;15.02;83.41;100773.41;5014664;28;20096;-75
2021/06/09 03:20:51;;;;;;;49.20;42.80;;;;;;;15.07;83.29;100776.66;5029530;28;20411;-75
2021/06/09 03:23:38;;;;;;;50.15;43.35;;;;;;;14.85;84.48;100771.91;5035229;28;20049;-76
2021/06/09 03:26:14;;;;;;;52.10;44.28;;;;;;;14.79;84.74;100775.88;5035561;28;20053;-75
2021/06/09 03:29:02;;;;;;;55.90;41.85;;;;;;;14.78;84.84;100771.44;5035405;28;20099;-75
2021/06/09 03:31:33;;;;;;;48.53;42.28;;;;;;;14.74;84.73;100780.72;5035303;28;20054;-75
2021/06/09 03:34:01;;;;;;;51.42;42.63;;;;;;;14.74;84.78;100774.47;5035121;28;20053;-75
2021/06/09 03:36:33;;;;;;;54.95;43.97;;;;;;;14.78;84.87;100774.13;5035207;28;20090;-76
2021/06/09 03:39:05;;;;;;;50.45;42.83;;;;;;;14.87;84.56;100779.88;5035211;28;20328;-76
2021/06/09 03:41:44;;;;;;;53.15;41.90;;;;;;;14.98;83.49;100776.44;5035360;28;20061;-76
2021/06/09 03:44:13;;;;;;;52.20;42.63;;;;;;;15.03;83.30;100779.66;5035194;28;20427;-79
2021/06/09 03:46:42;;;;;;;48.75;42.10;;;;;;;15.07;82.27;100759.63;5035239;28;20580;-79
2021/06/09 03:49:14;;;;;;;49.20;41.40;;;;;;;15.16;82.35;100774.28;5034393;28;20124;-78
2021/06/09 03:51:43;;;;;;;50.00;41.78;;;;;;;15.24;82.14;100779.97;5034423;28;20046;-76
2021/06/09 03:54:11;;;;;;;48.53;39.63;;;;;;;15.18;82.65;100775.00;5035201;28;20386;-79
2021/06/09 03:56:43;;;;;;;49.58;41.17;;;;;;;15.06;83.21;100777.63;5034978;28;20053;-77
2021/06/09 03:59:13;;;;;;;48.15;39.83;;;;;;;14.99;83.71;100780.84;5033879;28;20108;-75
2021/06/09 04:01:41;;;;;;;49.47;40.25;;;;;;;14.91;84.00;100771.47;5036742;28;20061;-77
2021/06/09 04:04:14;;;;;;;43.28;38.28;;;;;;;14.90;84.13;100775.13;5039207;28;20107;-78
2021/06/09 04:06:43;;;;;;;48.72;39.47;;;;;;;14.87;84.39;100775.34;5038203;28;20057;-78
2021/06/09 04:09:15;;;;;;;49.38;39.08;;;;;;;14.86;84.21;100773.63;5038884;28;20057;-79
2021/06/09 04:11:42;;;;;;;46.50;37.75;;;;;;;14.82;84.36;100758.66;5038911;28;20049;-80
2021/06/09 04:14:10;;;;;;;47.03;38.63;;;;;;;14.85;84.73;100771.03;5039152;28;20053;-77
2021/06/09 04:16:39;;;;;;;46.05;37.03;;;;;;;14.80;84.67;100772.22;5038821;28;20061;-75
2021/06/09 04:19:07;;;;;;;44.88;36.88;;;;;;;14.87;84.71;100771.81;5033728;28;20400;-76
2021/06/09 04:21:37;;;;;;;44.42;37.78;;;;;;;14.97;84.43;100775.56;5018732;28;20057;-76
2021/06/09 04:24:04;;;;;;;46.97;37.38;;;;;;;14.93;84.40;100763.31;5017793;28;20053;-78
2021/06/09 04:26:33;;;;;;;44.60;37.40;;;;;;;15.02;84.45;100769.84;5034114;28;20100;-77
2021/06/09 04:29:02;;;;;;;47.35;38.50;;;;;;;15.03;84.47;100760.84;5018092;28;20049;-79
2021/06/09 04:31:31;;;;;;;47.92;37.88;;;;;;;15.09;84.65;100770.28;5017774;28;20049;-76
2021/06/09 04:33:58;;;;;;;44.78;38.50;;;;;;;15.13;84.32;100769.09;5018650;28;20049;-77
2021/06/09 04:36:25;;;;;;;46.33;40.05;;;;;;;15.14;83.94;100760.94;5018532;28;20100;-78
2021/06/09 04:38:52;;;;;;;46.85;40.35;;;;;;;15.24;84.23;100771.88;5018644;28;20057;-79
2021/06/09 04:41:20;;;;;;;46.58;38.45;;;;;;;15.27;83.98;100770.81;5018872;28;20093;-81
2021/06/09 04:43:48;;;;;;;46.80;40.60;;;;;;;15.37;83.76;100765.63;5018773;28;20123;-77
2021/06/09 04:46:23;;;;;;;50.03;41.33;;;;;;;15.45;83.01;100769.50;5016250;28;20054;-75
2021/06/09 04:49:01;;;;;;;53.38;43.30;;;;;;;15.52;83.17;100771.75;5018722;28;20046;-78
2021/06/09 04:51:31;;;;;;;48.40;41.00;;;;;;;15.59;83.01;100773.03;5018289;28;20058;-76
2021/06/09 04:53:58;;;;;;;49.05;40.78;;;;;;;15.61;83.34;100781.84;5016092;28;20054;-75
2021/06/09 04:56:33;;;;;;;49.38;39.72;;;;;;;15.55;83.35;100774.22;5022519;28;20045;-80
2021/06/09 04:59:07;;;;;;;46.70;40.03;;;;;;;15.61;83.63;100773.75;5019543;28;20103;-76
2021/06/09 05:01:38;;;;;;;46.35;40.83;;;;;;;15.59;83.97;100762.25;5025388;28;20509;-77
2021/06/09 05:04:05;;;;;;;48.80;40.55;;;;;;;15.74;83.28;100768.34;5027877;28;20061;-75
2021/06/09 05:06:32;;;;;;;47.60;41.28;;;;;;;15.78;83.64;100774.34;5025583;28;20053;-74
2021/06/09 05:08:59;;;;;;;46.55;41.05;;;;;;;15.84;84.09;100776.59;5024947;28;20042;-76
2021/06/09 05:11:41;;;;;;;45.90;38.63;;;;;;;15.87;84.23;100779.91;5025766;28;20431;-79
2021/06/09 05:14:14;;;;;;;48.17;39.88;;;;;;;15.88;84.14;100770.91;5027433;28;20419;-77
2021/06/09 05:16:45;;;;;;;48.70;39.22;;;;;;;15.91;83.61;100772.47;5034044;28;20111;-75
2021/06/09 05:19:14;;;;;;;;;;;;;;;16.00;83.31;100781.75;5036580;28;20703;-76
2021/06/09 05:21:40;;;;;;;43.78;37.97;;;;;;;16.05;83.35;100782.25;5028082;28;20008;-77
2021/06/09 05:24:10;;;;;;;45.10;38.92;;;;;;;16.13;83.44;100789.78;5027569;28;20103;-77
2021/06/09 05:26:38;;;;;;;48.72;41.80;;;;;;;16.17;82.67;100777.78;5028721;28;20510;-76
2021/06/09 05:29:08;;;;;;;46.10;40.30;;;;;;;16.23;82.45;100763.88;5027606;28;20076;-76
2021/06/09 05:31:35;;;;;;;52.85;44.00;;;;;;;16.35;82.08;100778.22;5029112;28;20973;-77
2021/06/09 05:34:03;;;;;;;47.65;42.22;;;;;;;16.34;81.18;100771.13;5026767;28;20344;-76
2021/06/09 05:36:32;;;;;;;53.78;43.30;;;;;;;16.44;79.90;100765.91;5026815;28;20051;-76
2021/06/09 05:39:00;;;;;;;49.42;42.50;;;;;;;16.60;79.13;100773.69;5026673;28;20498;-76
2021/06/09 05:41:27;;;;;;;56.58;43.67;;;;;;;16.63;78.66;100765.38;5025055;28;20052;-77
2021/06/09 05:43:54;;;;;;;48.25;42.53;;;;;;;16.79;78.80;100769.56;5027790;28;20517;-77
2021/06/09 05:46:21;;;;;;;49.25;42.92;;;;;;;16.86;78.02;100770.81;5028129;28;20107;-77
2021/06/09 05:48:48;;;;;;;52.13;42.58;;;;;;;16.91;77.64;100763.22;5026945;28;20041;-77
2021/06/09 05:51:17;;;;;;;51.28;42.17;;;;;;;17.10;77.65;100776.13;5024855;28;20053;-80
2021/06/09 05:53:44;;;;;;;48.63;42.22;;;;;;;17.17;77.46;100772.94;5026408;28;20050;-76
2021/06/09 05:56:11;;;;;;;48.95;42.88;;;;;;;17.18;77.90;100769.28;5027582;28;20062;-76
2021/06/09 05:58:39;;;;;;;49.10;40.80;;;;;;;17.27;78.11;100770.38;5022268;28;20049;-73
2021/06/09 06:01:11;;;;;;;48.65;40.92;;;;;;;17.31;78.03;100769.13;5016810;28;20440;-76
2021/06/09 06:03:40;;;;;;;47.35;41.38;;;;;;;17.36;78.54;100775.03;5016100;28;20069;-74
2021/06/09 06:06:09;;;;;;;47.47;41.67;;;;;;;17.41;78.15;100774.66;5016762;28;20057;-74
2021/06/09 06:08:42;;;;;;;48.20;41.67;;;;;;;17.46;77.61;100773.31;5017122;28;20042;-75
2021/06/09 06:11:13;;;;;;;45.88;39.92;;;;;;;17.64;77.09;100778.19;5016127;28;20062;-76
2021/06/09 06:13:44;;;;;;;45.42;40.53;;;;;;;17.65;76.52;100777.22;5016616;28;20455;-76
2021/06/09 06:16:15;;;;;;;50.72;41.13;;;;;;;17.58;77.46;100760.66;5016443;28;20058;-77
2021/06/09 06:18:44;;;;;;;43.80;38.92;;;;;;;17.67;76.84;100771.69;5018251;28;20046;-76
2021/06/09 06:21:13;;;;;;;48.42;41.33;;;;;;;17.81;76.07;100781.38;5036650;28;20049;-77
2021/06/09 06:23:40;;;;;;;46.65;39.72;;;;;;;17.84;76.38;100778.41;5036240;28;20057;-76
2021/06/09 06:26:17;;;;;;;46.97;38.92;;;;;;;17.93;75.46;100766.88;5036867;28;20089;-78
2021/06/09 06:28:45;;;;;;;46.85;38.08;;;;;;;18.01;74.92;100772.50;5036081;28;20050;-75
2021/06/09 06:31:14;;;;;;;46.97;37.70;;;;;;;18.02;73.91;100765.22;5036691;28;20057;-77
2021/06/09 06:33:45;;;;;;;45.65;36.55;;;;;;;18.16;74.32;100785.72;5035071;28;20085;-74
2021/06/09 06:36:13;;;;;;;46.30;38.83;;;;;;;18.25;74.45;100782.25;5036500;28;20059;-73
2021/06/09 06:38:41;;;;;;;47.35;38.40;;;;;;;18.29;74.12;100783.72;5036371;28;20299;-75
2021/06/09 06:41:08;;;;;;;42.15;37.65;;;;;;;18.36;73.55;100781.34;5036220;28;20049;-78
2021/06/09 06:43:36;;;;;;;43.97;36.08;;;;;;;18.45;73.13;100786.00;5035121;28;20162;-77
2021/06/09 06:46:05;;;;;;;42.72;35.60;;;;;;;18.48;71.62;100782.16;5035646;28;20096;-76
2021/06/09 06:48:34;;;;;;;43.95;35.53;;;;;;;18.46;71.42;100776.88;5035635;28;20396;-75
2021/06/09 06:51:02;;;;;;;46.30;36.55;;;;;;;18.54;72.68;100787.06;5034637;28;20076;-75
2021/06/09 06:53:29;;;;;;;43.63;36.95;;;;;;;18.62;72.52;100785.53;5035512;28;20461;-76
2021/06/09 06:56:01;;;;;;;46.92;36.85;;;;;;;18.75;70.30;100785.34;5035494;28;20053;-75
2021/06/09 06:58:31;;;;;;;42.03;36.58;;;;;;;18.85;70.52;100787.13;5034421;28;20053;-76
2021/06/09 07:01:00;;;;;;;40.50;36.13;;;;;;;18.92;69.11;100790.16;5035824;28;20053;-75
2021/06/09 07:03:28;;;;;;;43.15;35.22;;;;;;;19.06;68.62;100777.31;5035983;28;20045;-76
2021/06/09 07:05:55;;;;;;;44.13;36.05;;;;;;;19.10;67.73;100786.84;5035686;28;20053;-78
2021/06/09 07:08:23;;;;;;;44.83;36.40;;;;;;;19.10;68.05;100776.91;5034660;28;20107;-76
2021/06/09 07:10:51;;;;;;;44.45;35.10;;;;;;;19.13;68.31;100792.00;5035606;28;20052;-76
2021/06/09 07:13:21;;;;;;;41.35;34.22;;;;;;;19.15;68.99;100784.63;5034513;28;20446;-75
2021/06/09 07:15:51;;;;;;;42.53;35.38;;;;;;;19.17;68.11;100788.03;5035641;28;20446;-75
2021/06/09 07:18:21;;;;;;;44.35;35.90;;;;;;;19.25;67.93;100795.50;5035409;28;20045;-75
2021/06/09 07:20:48;;;;;;;40.65;35.20;;;;;;;19.34;68.12;100791.97;5016794;28;20104;-75
2021/06/09 07:23:14;;;;;;;40.30;35.38;;;;;;;19.36;66.86;100792.69;5015793;28;20050;-77
2021/06/09 07:25:41;;;;;;;43.28;35.00;;;;;;;19.41;67.39;100784.16;5015495;28;20062;-76
2021/06/09 07:28:08;;;;;;;40.50;34.22;;;;;;;19.53;66.97;100793.03;5015504;28;20042;-78
2021/06/09 07:30:37;;;;;;;45.00;36.15;;;;;;;19.58;67.53;100792.63;5015559;28;20058;-76
2021/06/09 07:33:05;;;;;;;41.47;35.88;;;;;;;19.64;66.30;100797.50;5014455;28;20435;-76
2021/06/09 07:35:34;;;;;;;45.10;36.20;;;;;;;19.67;65.43;100792.66;5015451;28;20046;-76
2021/06/09 07:38:09;;;;;;;46.13;36.00;;;;;;;19.71;66.12;100789.69;5015464;28;20088;-76
2021/06/09 07:40:39;;;;;;;42.47;36.67;;;;;;;19.70;65.69;100780.69;5015924;28;20097;-76
2021/06/09 07:43:10;;;;;;;44.03;36.35;;;;;;;19.84;66.15;100793.00;5015587;28;20057;-77
2021/06/09 07:45:40;;;;;;;44.17;36.22;;;;;;;19.78;65.19;100780.00;5015719;28;20054;-74
2021/06/09 07:48:09;;;;;;;40.45;35.22;;;;;;;19.84;65.17;100774.03;5021373;28;20074;-74
2021/06/09 07:50:44;;;;;;;41.97;34.63;;;;;;;20.04;65.35;100788.50;5019201;28;20054;-76
2021/06/09 07:53:14;;;;;;;40.05;35.67;;;;;;;20.18;65.63;100792.66;5022811;28;20053;-76
2021/06/09 07:55:42;;;;;;;37.75;33.55;;;;;;;20.21;63.58;100789.66;5015888;28;20076;-75
2021/06/09 07:58:10;;;;;;;41.53;36.13;;;;;;;20.25;65.11;100792.09;5015420;28;20050;-75
2021/06/09 08:00:38;;;;;;;40.60;35.70;;;;;;;20.27;64.60;100795.50;5016060;28;20057;-75
2021/06/09 08:03:05;;;;;;;42.45;35.15;;;;;;;20.24;65.28;100798.50;5015593;28;20395;-75
2021/06/09 08:05:32;;;;;;;36.97;32.55;;;;;;;20.37;64.14;100793.63;5015425;28;20053;-77
2021/06/09 08:07:59;;;;;;;34.92;30.73;;;;;;;20.42;64.14;100791.38;5014418;28;20053;-76
2021/06/09 08:10:40;;;;;;;36.55;30.75;;;;;;;20.56;62.09;100794.66;5015150;28;20068;-77
2021/06/09 08:13:10;;;;;;;28.70;25.58;;;;;;;20.61;59.64;100792.38;5014430;28;20080;-76
2021/06/09 08:15:38;;;;;;;26.15;23.35;;;;;;;20.68;60.73;100790.78;5015160;28;20328;-77
2021/06/09 08:18:06;;;;;;;29.88;25.38;;;;;;;20.79;61.77;100794.31;5014155;28;20056;-77
2021/06/09 08:20:35;;;;;;;27.52;24.55;;;;;;;20.90;61.80;100796.91;5030326;28;20111;-76
2021/06/09 08:23:02;;;;;;;31.25;27.50;;;;;;;20.99;61.37;100787.03;5034976;28;20088;-76
2021/06/09 08:25:29;;;;;;;32.33;28.58;;;;;;;20.95;60.97;100791.91;5034635;28;20111;-77
2021/06/09 08:27:55;;;;;;;35.17;28.33;;;;;;;21.01;61.48;100796.75;5034888;28;20446;-75
2021/06/09 08:30:23;;;;;;;36.40;29.75;;;;;;;21.16;62.21;100793.56;5034767;28;20052;-76
2021/06/09 08:32:50;;;;;;;36.47;32.47;;;;;;;;;;5035008;28;20046;-76
2021/06/09 08:35:17;;;;;;;40.28;32.92;;;;;;;;;;5034522;28;20050;-75
2021/06/09 08:37:44;;;;;;;35.50;30.52;;;;;;;21.35;61.51;100792.63;5034868;28;20072;-77
2021/06/09 08:40:12;;;;;;;34.15;28.15;;;;;;;21.44;61.72;100783.59;5034735;28;20062;-75
2021/06/09 08:42:41;;;;;;;36.92;28.23;;;;;;;21.50;62.24;100790.28;5033503;28;20095;-75
2021/06/09 08:45:11;;;;;;;34.05;26.48;;;;;;;21.54;62.16;100797.16;5034996;28;20080;-76
2021/06/09 08:47:39;;;;;;;35.70;26.50;;;;;;;21.48;60.19;100789.59;5035679;28;20438;-75
2021/06/09 08:50:11;;;;;;;28.33;21.80;;;;;;;21.56;60.28;100775.25;5037082;28;20119;-77
2021/06/09 08:52:50;;;;;;;28.17;23.52;;;;;;;21.67;59.24;100779.63;5038332;28;20064;-75
2021/06/09 08:55:19;;;;;;;26.23;23.30;;;;;;;21.77;60.20;100785.88;5037612;28;20045;-79
2021/06/09 08:57:47;;;;;;;29.23;23.83;;;;;;;21.72;59.22;100785.47;5038174;28;20099;-76
2021/06/09 09:00:17;;;;;;;27.70;24.70;;;;;;;21.74;58.04;100786.22;5037999;28;20050;-78
2021/06/09 09:02:46;;;;;;;25.25;22.02;;;;;;;21.77;59.04;100780.47;5037911;28;20439;-75
2021/06/09 09:05:13;;;;;;;24.77;21.73;;;;;;;21.85;56.51;100782.44;5038252;28;20103;-78
2021/06/09 09:07:40;;;;;;;31.58;23.60;;;;;;;21.81;57.45;100779.16;5037087;28;20049;-75
2021/06/09 09:10:08;;;;;;;27.25;22.00;;;;;;;21.92;58.32;100785.38;5038372;28;20324;-74
2021/06/09 09:12:36;;;;;;;25.10;18.90;;;;;;;21.98;56.17;100787.47;5037829;28;20053;-76
2021/06/09 09:15:07;;;;;;;21.92;18.30;;;;;;;21.84;54.49;100786.13;5037672;28;20053;-76
2021/06/09 09:17:51;;;;;;;21.48;16.70;;;;;;;21.87;55.92;100794.00;5037927;28;20105;-75
2021/06/09 09:20:42;;;;;;;21.50;19.17;;;;;;;21.80;55.06;100796.44;5022941;28;20057;-74
2021/06/09 09:23:20;;;;;;;28.20;17.23;;;;;;;22.00;56.70;100793.59;5017865;28;20060;-75
2021/06/09 09:25:49;;;;;;;24.73;18.90;;;;;;;22.15;54.73;100793.06;5017760;28;20061;-75
2021/06/09 09:28:29;;;;;;;21.55;15.73;;;;;;;22.35;54.20;100797.34;5017900;28;20054;-76
2021/06/09 09:31:10;;;;;;;18.63;15.73;;;;;;;22.46;54.21;100803.56;5018081;28;20076;-73
2021/06/09 09:33:38;;;;;;;20.70;18.20;;;;;;;22.48;53.76;100806.97;5017542;28;20452;-74
2021/06/09 09:36:26;;;;;;;24.20;19.35;;;;;;;22.41;54.26;100800.47;5017587;28;20152;-77
2021/06/09 09:38:54;;;;;;;22.88;16.88;;;;;;;22.49;54.13;100806.84;5017434;28;20328;-74
2021/06/09 09:41:22;;;;;;;18.52;16.55;;;;;;;22.51;53.69;100796.69;5016990;28;20053;-78
2021/06/09 09:43:56;;;;;;;20.95;16.85;;;;;;;22.74;53.45;100800.78;5016564;28;20076;-79
2021/06/09 09:46:24;;;;;;;19.25;16.10;;;;;;;22.86;52.08;100799.50;5017055;28;20054;-75
2021/06/09 09:49:12;;;;;;;19.10;15.93;;;;;;;23.02;52.45;100809.66;5017030;28;20104;-78
2021/06/09 09:51:42;;;;;;;17.27;15.23;;;;;;;23.08;50.42;100805.44;5016200;28;20045;-78
2021/06/09 09:54:09;;;;;;;18.27;15.85;;;;;;;23.10;50.53;100800.66;5017272;28;20054;-75
2021/06/09 09:56:38;;;;;;;15.52;13.85;;;;;;;23.01;49.49;100785.31;5032329;28;20070;-78
2021/06/09 09:59:10;;;;;;;16.13;13.60;;;;;;;23.30;49.32;100798.63;5016372;28;20121;-79
2021/06/09 10:01:51;;;;;;;16.80;12.73;;;;;;;23.51;49.96;100807.38;5015914;28;20076;-78
2021/06/09 10:04:27;;;;;;;20.45;14.65;;;;;;;23.42;46.77;100801.06;5017040;28;20057;-79
2021/06/09 10:06:55;;;;;;;17.30;13.63;;;;;;;23.62;47.38;100806.28;5016919;28;20050;-78
2021/06/09 10:09:38;;;;;;;13.57;12.10;;;;;;;23.78;46.85;100810.91;5015940;28;20049;-76
2021/06/09 10:12:08;;;;;;;14.02;12.30;;;;;;;23.83;47.65;100801.22;5016729;28;20049;-74
2021/06/09 10:14:39;;;;;;;19.55;15.57;;;;;;;23.97;47.07;100804.34;5017517;28;20064;-75
2021/06/09 10:17:11;;;;;;;18.30;15.88;;;;;;;23.99;47.92;100803.16;5017652;28;20434;-74
2021/06/09 10:19:43;;;;;;;19.48;14.55;;;;;;;24.21;49.46;100805.44;5028500;28;20053;-75
2021/06/09 10:22:29;;;;;;;20.50;16.38;;;;;;;24.31;47.44;100808.88;5036430;28;20060;-77
2021/06/09 10:25:01;;;;;;;19.13;16.10;;;;;;;24.31;46.81;100805.28;5036519;28;20073;-77
2021/06/09 10:27:36;;;;;;;20.10;16.00;;;;;;;24.41;46.94;100800.53;5035425;28;20071;-78
2021/06/09 10:30:21;;;;;;;18.42;16.40;;;;;;;24.65;47.47;100809.72;5036427;28;20398;-78
2021/06/09 10:32:55;;;;;;;20.60;17.70;;;;;;;24.62;45.80;100810.09;5036090;28;20136;-73
2021/06/09 10:35:25;;;;;;;22.67;17.60;;;;;;;24.52;46.10;100804.78;5036224;28;20053;-79
2021/06/09 10:37:54;;;;;;;23.05;18.95;;;;;;;24.20;46.38;100799.13;5036199;28;20107;-77
2021/06/09 10:40:26;;;;;;;22.85;19.35;;;;;;;24.09;46.58;100810.34;5036002;28;20049;-75
2021/06/09 10:42:56;;;;;;;25.17;19.02;;;;;;;24.25;47.56;100796.75;5036326;28;20053;-76
2021/06/09 10:45:24;;;;;;;20.42;18.23;;;;;;;24.52;49.40;100794.72;5036155;28;20394;-78
2021/06/09 10:47:56;;;;;;;25.10;19.65;;;;;;;24.39;48.02;100789.78;5034981;28;20096;-78
2021/06/09 10:50:23;;;;;;;23.30;18.80;;;;;;;24.51;47.60;100782.09;5035834;28;20049;-77
2021/06/09 10:52:50;;;;;;;25.73;19.63;;;;;;;24.64;46.84;100794.38;5035029;28;20057;-79
2021/06/09 10:55:18;;;;;;;29.55;18.58;;;;;;;24.63;46.31;100785.31;5035848;28;20132;-77
2021/06/09 10:57:48;;;;;;;23.90;19.08;;;;;;;24.80;45.22;100793.56;5018716;28;20053;-77
2021/06/09 11:00:15;;;;;;;18.02;15.98;;;;;;;24.76;46.23;100773.03;5035960;28;20052;-77
2021/06/09 11:02:43;;;;;;;26.45;19.50;;;;;;;25.08;45.41;100791.28;5034672;28;20447;-75
2021/06/09 11:05:12;;;;;;;19.40;16.50;;;;;;;25.35;47.36;100789.16;5035639;28;20150;-77
2021/06/09 11:07:41;;;;;;;22.10;17.70;;;;;;;25.59;45.53;100790.13;5035561;28;20061;-76
2021/06/09 11:10:10;;;;;;;30.08;19.17;;;;;;;25.88;43.16;100791.34;5035619;28;20321;-77
2021/06/09 11:12:38;;;;;;;23.83;21.25;;;;;;;25.78;42.70;100785.25;5034700;28;20053;-72
2021/06/09 11:15:10;;;;;;;23.77;18.45;;;;;;;25.88;43.69;100788.59;5035395;28;20052;-71
2021/06/09 11:17:44;;;;;;;24.55;18.00;;;;;;;25.71;45.17;100787.84;5035303;28;20053;-72
2021/06/09 11:20:29;;;;;;;19.88;17.20;;;;;;;25.50;45.10;100780.22;5022025;28;20046;-72
2021/06/09 11:23:01;;;;;;;21.33;16.42;;;;;;;25.12;44.54;100780.88;5015550;28;20053;-71
2021/06/09 11:25:38;;;;;;;23.50;18.92;;;;;;;25.18;44.72;100784.78;5014347;28;20058;-71
2021/06/09 11:28:12;;;;;;;19.17;16.55;;;;;;;25.23;44.54;100776.91;5015529;28;20054;-71